createdAt,value
2019-03-29T00:00:56.003Z,22.00
2019-03-29T00:03:24.486Z,22.90
2019-03-29T00:05:52.948Z,22.77
2019-03-29T00:08:21.770Z,22.25
2019-03-29T00:10:50.223Z,25.23
2019-03-29T00:13:19.049Z,23.00
2019-03-29T00:15:47.512Z,25.88
2019-03-29T00:18:15.987Z,24.35
2019-03-29T00:20:44.438Z,23.22
2019-03-29T00:23:13.282Z,24.77
2019-03-29T00:25:41.770Z,23.85
2019-03-29T00:28:11.078Z,26.65
2019-03-29T00:30:39.811Z,30.12
2019-03-29T00:33:08.283Z,30.15
2019-03-29T00:35:37.055Z,36.77
2019-03-29T00:38:05.532Z,30.48
2019-03-29T00:40:34.063Z,26.52
2019-03-29T00:43:02.819Z,27.22
2019-03-29T00:45:31.612Z,26.23
2019-03-29T00:48:00.162Z,27.48
2019-03-29T00:50:28.616Z,29.02
2019-03-29T00:52:57.093Z,34.50
2019-03-29T00:55:25.867Z,31.33
2019-03-29T00:57:54.419Z,32.65
2019-03-29T01:00:23.239Z,30.40
2019-03-29T01:02:51.736Z,32.03
2019-03-29T01:05:20.239Z,38.17
2019-03-29T01:07:49.452Z,29.10
2019-03-29T01:10:17.907Z,29.52
2019-03-29T01:12:46.699Z,29.87
2019-03-29T01:15:15.592Z,27.15
2019-03-29T01:17:44.063Z,30.30
2019-03-29T01:20:13.059Z,28.70
2019-03-29T01:22:41.540Z,31.35
2019-03-29T01:25:10.136Z,28.27
2019-03-29T01:27:38.943Z,26.70
2019-03-29T01:30:08.140Z,28.07
2019-03-29T01:32:36.941Z,30.23
2019-03-29T01:35:07.054Z,29.20
2019-03-29T01:37:35.527Z,31.93
2019-03-29T01:40:05.183Z,31.48
2019-03-29T01:42:33.668Z,31.25
2019-03-29T01:45:02.542Z,32.98
2019-03-29T01:47:31.339Z,39.92
2019-03-29T01:49:59.824Z,41.02
2019-03-29T01:52:30.229Z,51.58
2019-03-29T01:54:58.492Z,55.63
2019-03-29T01:57:27.427Z,63.08
2019-03-29T01:59:56.219Z,49.33
2019-03-29T02:02:25.119Z,70.22
2019-03-29T02:04:53.907Z,79.87
2019-03-29T02:07:22.363Z,79.47
2019-03-29T02:09:50.839Z,51.88
2019-03-29T02:12:19.556Z,47.20
2019-03-29T02:14:48.027Z,45.98
2019-03-29T02:17:16.853Z,64.70
2019-03-29T02:19:45.326Z,56.02
2019-03-29T02:22:13.783Z,54.65
2019-03-29T02:24:42.256Z,55.75
2019-03-29T02:27:10.996Z,40.65
2019-03-29T02:29:39.475Z,50.80
2019-03-29T02:32:08.289Z,61.05
2019-03-29T02:34:36.840Z,70.57
2019-03-29T02:37:05.304Z,79.75
2019-03-29T02:39:34.148Z,74.72
2019-03-29T02:42:02.676Z,65.08
2019-03-29T02:44:31.523Z,55.03
2019-03-29T02:47:00.315Z,62.83
2019-03-29T02:49:28.796Z,75.42
2019-03-29T02:51:57.428Z,57.55
2019-03-29T02:54:26.183Z,53.02
2019-03-29T02:56:54.648Z,60.43
2019-03-29T02:59:23.201Z,73.05
2019-03-29T03:01:51.953Z,61.80
2019-03-29T03:04:20.504Z,68.67
2019-03-29T03:06:49.336Z,58.85
2019-03-29T03:09:17.878Z,51.15
2019-03-29T03:11:46.608Z,50.95
2019-03-29T03:14:15.092Z,60.15
2019-03-29T03:16:43.562Z,46.80
2019-03-29T03:19:12.108Z,47.58
2019-03-29T03:21:40.559Z,77.50
2019-03-29T03:24:09.372Z,64.42
2019-03-29T03:26:38.141Z,48.87
2019-03-29T03:29:07.037Z,54.93
2019-03-29T03:31:35.742Z,44.70
2019-03-29T03:34:04.638Z,64.58
2019-03-29T03:36:33.177Z,57.45
2019-03-29T03:39:02.001Z,63.17
2019-03-29T03:41:30.888Z,53.73
2019-03-29T03:43:59.682Z,50.85
2019-03-29T03:46:28.470Z,58.02
2019-03-29T03:48:57.276Z,56.95
2019-03-29T03:51:26.464Z,84.17
2019-03-29T03:53:55.067Z,73.07
2019-03-29T03:56:23.611Z,86.82
2019-03-29T03:58:52.346Z,100.35
2019-03-29T04:01:20.908Z,86.67
2019-03-29T04:03:49.729Z,93.95
2019-03-29T04:06:18.279Z,104.17
2019-03-29T04:08:46.756Z,61.92
2019-03-29T04:11:15.596Z,62.00
2019-03-29T04:13:44.203Z,36.88
2019-03-29T04:16:13.072Z,37.10
2019-03-29T04:18:41.526Z,34.43
2019-03-29T04:21:10.076Z,43.87
2019-03-29T04:23:38.684Z,31.17
2019-03-29T04:26:07.529Z,24.87
2019-03-29T04:28:35.987Z,26.60
2019-03-29T04:31:04.467Z,28.05
2019-03-29T04:33:33.301Z,30.68
2019-03-29T04:36:02.197Z,29.95
2019-03-29T04:38:31.089Z,28.95
2019-03-29T04:40:59.639Z,40.63
2019-03-29T04:43:28.091Z,53.70
2019-03-29T04:45:56.746Z,48.78
2019-03-29T04:48:25.276Z,67.80
2019-03-29T04:50:53.819Z,38.83
2019-03-29T04:53:22.279Z,41.02
2019-03-29T04:55:50.755Z,34.88
2019-03-29T04:58:19.215Z,44.85
2019-03-29T05:00:48.069Z,66.85
2019-03-29T05:03:16.531Z,69.27
2019-03-29T05:05:45.007Z,87.70
2019-03-29T05:08:13.463Z,112.15
2019-03-29T05:10:41.939Z,124.20
2019-03-29T05:13:10.699Z,116.17
2019-03-29T05:15:39.180Z,142.72
2019-03-29T05:18:07.636Z,76.15
2019-03-29T05:20:36.470Z,95.07
2019-03-29T05:23:05.264Z,92.20
2019-03-29T05:25:34.060Z,61.95
2019-03-29T05:28:02.948Z,62.50
2019-03-29T05:30:31.743Z,53.13
2019-03-29T05:33:00.279Z,46.77
2019-03-29T05:35:28.754Z,52.38
2019-03-29T05:37:57.243Z,45.50
2019-03-29T05:40:34.794Z,47.13
2019-03-29T05:42:56.192Z,46.68
2019-03-29T05:45:25.007Z,48.58
2019-03-29T05:47:53.475Z,44.35
2019-03-29T05:50:21.935Z,44.38
2019-03-29T05:52:50.770Z,42.85
2019-03-29T05:55:32.030Z,37.03
2019-03-29T05:57:50.095Z,39.92
2019-03-29T06:00:19.302Z,36.60
2019-03-29T06:02:47.852Z,35.43
2019-03-29T06:05:16.579Z,37.83
2019-03-29T06:07:45.057Z,44.67
2019-03-29T06:10:13.863Z,49.73
2019-03-29T06:12:42.355Z,46.37
2019-03-29T06:15:10.879Z,47.95
2019-03-29T06:17:48.436Z,36.53
2019-03-29T06:20:10.238Z,35.80
2019-03-29T06:22:38.713Z,33.23
2019-03-29T06:25:08.249Z,35.90
2019-03-29T06:27:37.148Z,35.35
2019-03-29T06:30:09.025Z,32.75
2019-03-29T06:32:37.500Z,44.55
2019-03-29T06:35:07.591Z,41.80
2019-03-29T06:37:37.436Z,33.83
2019-03-29T06:40:08.967Z,37.58
2019-03-29T06:42:37.439Z,34.65
2019-03-29T06:45:07.544Z,34.30
2019-03-29T06:47:36.300Z,38.78
2019-03-29T06:50:07.129Z,40.75
2019-03-29T06:52:35.925Z,42.27
2019-03-29T06:55:05.328Z,36.70
2019-03-29T06:57:33.803Z,42.60
2019-03-29T07:00:02.612Z,44.58
2019-03-29T07:02:31.426Z,25.20
2019-03-29T07:04:59.954Z,22.82
2019-03-29T07:07:28.436Z,25.95
2019-03-29T07:09:56.891Z,26.90
2019-03-29T07:12:25.657Z,22.55
2019-03-29T07:14:54.186Z,23.18
2019-03-29T07:17:22.664Z,19.85
2019-03-29T07:19:51.416Z,19.73
2019-03-29T07:22:19.894Z,20.30
2019-03-29T07:24:48.599Z,20.62
2019-03-29T07:27:17.082Z,22.45
2019-03-29T07:29:45.543Z,21.07
2019-03-29T07:32:14.367Z,21.93
2019-03-29T07:34:43.255Z,20.85
2019-03-29T07:37:12.147Z,21.85
2019-03-29T07:39:40.950Z,21.45
2019-03-29T07:42:09.512Z,20.90
2019-03-29T07:44:38.324Z,20.43
2019-03-29T07:47:06.800Z,16.82
2019-03-29T07:49:35.601Z,18.70
2019-03-29T07:52:04.402Z,20.20
2019-03-29T07:54:33.282Z,19.05
2019-03-29T07:57:02.095Z,19.73
2019-03-29T07:59:30.611Z,16.87
2019-03-29T08:01:59.360Z,17.62
2019-03-29T08:04:27.831Z,16.73
2019-03-29T08:06:56.647Z,17.92
2019-03-29T08:09:26.304Z,16.93
2019-03-29T08:11:56.073Z,15.03
2019-03-29T08:14:24.860Z,18.15
2019-03-29T08:16:53.314Z,16.48
2019-03-29T08:19:21.795Z,17.50
2019-03-29T08:21:50.319Z,18.62
2019-03-29T08:24:18.788Z,18.15
2019-03-29T08:26:47.243Z,17.92
2019-03-29T08:29:16.090Z,17.62
2019-03-29T08:31:44.615Z,16.37
2019-03-29T08:34:13.468Z,18.48
2019-03-29T08:36:41.918Z,17.75
2019-03-29T08:39:10.482Z,16.50
2019-03-29T08:41:39.435Z,17.15
2019-03-29T08:44:11.680Z,16.48
2019-03-29T08:46:38.970Z,19.00
2019-03-29T08:49:07.512Z,16.00
2019-03-29T08:51:35.971Z,17.45
2019-03-29T08:54:04.779Z,15.85
2019-03-29T08:56:33.239Z,14.90
2019-03-29T08:59:05.287Z,15.93
2019-03-29T09:01:34.180Z,22.27
2019-03-29T09:04:05.697Z,16.73
2019-03-29T09:06:33.904Z,23.90
2019-03-29T09:09:03.118Z,18.20
2019-03-29T09:11:31.580Z,17.27
2019-03-29T09:14:00.059Z,15.83
2019-03-29T09:16:28.521Z,16.30
2019-03-29T09:18:56.999Z,9.28
2019-03-29T09:21:25.848Z,14.03
2019-03-29T09:23:54.750Z,10.38
2019-03-29T09:26:23.644Z,12.93
2019-03-29T09:28:52.539Z,13.03
2019-03-29T09:31:20.997Z,12.75
2019-03-29T09:33:49.468Z,10.55
2019-03-29T09:36:17.928Z,12.45
2019-03-29T09:38:46.679Z,10.58
2019-03-29T09:41:15.307Z,12.88
2019-03-29T09:43:43.787Z,12.65
2019-03-29T09:46:12.551Z,12.05
2019-03-29T09:48:41.351Z,12.05
2019-03-29T09:51:09.877Z,13.80
2019-03-29T09:53:41.179Z,14.75
2019-03-29T09:56:09.161Z,14.87
2019-03-29T09:58:37.635Z,13.88
2019-03-29T10:01:06.435Z,15.28
2019-03-29T10:03:34.991Z,12.00
2019-03-29T10:06:03.701Z,13.80
2019-03-29T10:08:32.180Z,12.40
2019-03-29T10:11:00.631Z,15.98
2019-03-29T10:13:29.375Z,14.55
2019-03-29T10:15:57.867Z,14.75
2019-03-29T10:18:26.342Z,16.45
2019-03-29T10:20:55.142Z,14.75
2019-03-29T10:23:24.051Z,13.93
2019-03-29T10:25:53.048Z,21.10
2019-03-29T10:28:21.827Z,14.87
2019-03-29T10:30:50.303Z,14.43
2019-03-29T10:33:19.099Z,16.02
2019-03-29T10:35:52.682Z,17.37
2019-03-29T10:38:18.669Z,16.48
2019-03-29T10:40:47.347Z,16.87
2019-03-29T10:43:15.806Z,15.30
2019-03-29T10:45:44.712Z,17.40
2019-03-29T10:48:13.247Z,15.68
2019-03-29T10:50:41.722Z,15.10
2019-03-29T10:53:10.471Z,15.15
2019-03-29T10:55:38.948Z,16.48
2019-03-29T10:58:09.749Z,17.20
2019-03-29T11:00:39.615Z,15.00
2019-03-29T11:03:09.023Z,15.78
2019-03-29T11:05:37.871Z,15.55
2019-03-29T11:08:06.717Z,15.38
2019-03-29T11:10:37.510Z,16.67
2019-03-29T11:13:13.154Z,15.70
2019-03-29T11:15:36.307Z,18.23
2019-03-29T11:18:05.607Z,15.88
2019-03-29T11:20:34.362Z,17.65
2019-03-29T11:23:03.159Z,15.30
2019-03-29T11:25:31.947Z,17.45
2019-03-29T11:28:00.735Z,16.50
2019-03-29T11:30:41.507Z,16.10
2019-03-29T11:32:59.399Z,16.52
2019-03-29T11:35:27.943Z,16.55
2019-03-29T11:37:56.742Z,16.90
2019-03-29T11:40:25.294Z,15.30
2019-03-29T11:42:53.751Z,15.00
2019-03-29T11:45:22.319Z,17.73
2019-03-29T11:47:51.079Z,15.70
2019-03-29T11:50:19.875Z,16.10
2019-03-29T11:52:48.360Z,15.85
2019-03-29T11:55:17.256Z,15.90
2019-03-29T11:57:45.715Z,25.35
2019-03-29T12:00:15.791Z,17.00
2019-03-29T12:02:44.253Z,15.18
2019-03-29T12:05:13.148Z,14.10
2019-03-29T12:07:41.940Z,15.83
2019-03-29T12:10:10.493Z,15.55
2019-03-29T12:12:39.216Z,16.00
2019-03-29T12:15:09.035Z,14.65
2019-03-29T12:17:37.919Z,14.63
2019-03-29T12:20:07.596Z,26.55
2019-03-29T12:22:36.321Z,15.70
2019-03-29T12:25:07.371Z,13.88
2019-03-29T12:27:35.827Z,14.05
2019-03-29T12:30:07.220Z,15.38
2019-03-29T12:32:36.109Z,13.62
2019-03-29T12:35:09.763Z,16.05
2019-03-29T12:37:37.620Z,14.10
2019-03-29T12:40:07.432Z,14.35
2019-03-29T12:42:35.962Z,15.60
2019-03-29T12:45:05.861Z,12.55
2019-03-29T12:47:34.699Z,14.13
2019-03-29T12:50:04.209Z,13.22
2019-03-29T12:52:32.687Z,12.98
2019-03-29T12:55:01.492Z,12.68
2019-03-29T12:57:30.384Z,11.15
2019-03-29T12:59:59.176Z,13.35
2019-03-29T13:02:27.655Z,14.15
2019-03-29T13:04:56.111Z,13.95
2019-03-29T13:07:24.592Z,13.93
2019-03-29T13:09:53.050Z,10.20
2019-03-29T13:12:21.808Z,14.00
2019-03-29T13:14:50.613Z,10.13
2019-03-29T13:17:19.499Z,10.25
2019-03-29T13:19:48.027Z,11.88
2019-03-29T13:22:16.880Z,15.15
2019-03-29T13:24:45.671Z,13.13
2019-03-29T13:27:14.156Z,13.58
2019-03-29T13:29:42.615Z,11.03
2019-03-29T13:32:11.088Z,13.48
2019-03-29T13:34:39.538Z,12.88
2019-03-29T13:37:08.083Z,12.90
2019-03-29T13:39:36.899Z,12.05
2019-03-29T13:42:05.442Z,10.20
2019-03-29T13:44:33.891Z,12.93
2019-03-29T13:47:02.375Z,11.03
2019-03-29T13:49:31.239Z,12.75
2019-03-29T13:51:59.715Z,12.07
2019-03-29T13:54:28.172Z,13.43
2019-03-29T13:56:56.651Z,16.73
2019-03-29T13:59:25.179Z,23.30
2019-03-29T14:01:54.084Z,24.25
2019-03-29T14:04:22.615Z,12.70
2019-03-29T14:06:51.091Z,28.65
2019-03-29T14:09:19.864Z,11.68
2019-03-29T14:11:48.407Z,11.00
2019-03-29T14:14:17.236Z,12.13
2019-03-29T14:16:45.836Z,9.38
2019-03-29T14:19:14.383Z,20.68
2019-03-29T14:21:43.202Z,10.50
2019-03-29T14:24:11.658Z,13.32
2019-03-29T14:26:40.484Z,10.45
2019-03-29T14:29:09.036Z,12.25
2019-03-29T14:31:37.484Z,9.28
2019-03-29T14:34:05.963Z,9.50
2019-03-29T14:36:34.671Z,8.48
2019-03-29T14:39:03.148Z,10.40
2019-03-29T14:41:31.610Z,10.25
2019-03-29T14:44:00.103Z,10.50
2019-03-29T14:46:28.986Z,10.63
2019-03-29T14:48:57.529Z,13.50
2019-03-29T14:51:26.263Z,11.75
2019-03-29T14:53:55.047Z,9.45
2019-03-29T14:56:23.848Z,12.23
2019-03-29T14:58:52.382Z,8.43
2019-03-29T15:01:21.125Z,13.13
2019-03-29T15:03:49.602Z,10.05
2019-03-29T15:06:18.059Z,10.93
2019-03-29T15:08:49.635Z,11.30
2019-03-29T15:11:22.475Z,13.45
2019-03-29T15:13:47.235Z,10.75
2019-03-29T15:16:16.034Z,10.93
2019-03-29T15:18:44.502Z,10.08
2019-03-29T15:21:12.962Z,8.93
2019-03-29T15:23:41.514Z,12.20
2019-03-29T15:26:10.285Z,11.22
2019-03-29T15:28:39.078Z,11.75
2019-03-29T15:31:07.971Z,6.72
2019-03-29T15:33:36.450Z,10.78
2019-03-29T15:36:04.980Z,10.03
2019-03-29T15:38:33.449Z,9.33
2019-03-29T15:41:01.976Z,8.35
2019-03-29T15:43:30.812Z,8.53
2019-03-29T15:45:59.707Z,10.53
2019-03-29T15:48:28.497Z,9.63
2019-03-29T15:50:56.948Z,9.33
2019-03-29T15:53:25.434Z,8.93
2019-03-29T15:55:54.263Z,10.35
2019-03-29T15:58:22.748Z,10.70
2019-03-29T16:00:51.545Z,11.45
2019-03-29T16:03:20.337Z,11.15
2019-03-29T16:05:48.813Z,12.75
2019-03-29T16:08:17.611Z,12.40
2019-03-29T16:10:46.130Z,9.83
2019-03-29T16:13:14.996Z,11.80
2019-03-29T16:15:43.468Z,7.95
2019-03-29T16:18:12.288Z,9.68
2019-03-29T16:20:40.827Z,15.25
2019-03-29T16:23:09.652Z,13.03
2019-03-29T16:25:38.204Z,9.28
2019-03-29T16:28:07.039Z,10.20
2019-03-29T16:30:35.841Z,11.40
2019-03-29T16:33:04.722Z,9.83
2019-03-29T16:35:33.199Z,10.68
2019-03-29T16:38:01.719Z,12.65
2019-03-29T16:40:31.150Z,11.68
2019-03-29T16:43:00.098Z,14.35
2019-03-29T16:45:28.887Z,13.70
2019-03-29T16:47:57.689Z,12.30
2019-03-29T16:50:26.323Z,14.58
2019-03-29T16:52:55.163Z,18.75
2019-03-29T16:55:23.967Z,14.47
2019-03-29T16:57:52.423Z,12.47
2019-03-29T17:00:20.904Z,12.68
2019-03-29T17:03:04.616Z,13.90
2019-03-29T17:05:33.091Z,11.20
2019-03-29T17:08:04.973Z,13.70
2019-03-29T17:10:31.828Z,14.55
2019-03-29T17:13:00.612Z,18.67
2019-03-29T17:15:29.068Z,17.00
2019-03-29T17:17:57.839Z,19.98
2019-03-29T17:20:26.300Z,12.40
2019-03-29T17:22:55.108Z,14.93
2019-03-29T17:25:24.958Z,14.73
2019-03-29T17:27:53.724Z,15.58
2019-03-29T17:30:37.224Z,19.27
2019-03-29T17:33:06.149Z,16.27
2019-03-29T17:36:05.297Z,16.60
2019-03-29T17:38:33.834Z,16.27
2019-03-29T17:41:02.718Z,15.15
2019-03-29T17:43:31.508Z,15.38
2019-03-29T17:46:00.299Z,16.10
2019-03-29T17:48:29.096Z,15.65
2019-03-29T17:50:57.543Z,17.50
2019-03-29T17:53:26.015Z,19.35
2019-03-29T17:55:54.755Z,19.50
2019-03-29T17:58:23.653Z,15.75
2019-03-29T18:00:52.444Z,18.40
2019-03-29T18:03:20.982Z,18.48
2019-03-29T18:05:49.695Z,20.40
2019-03-29T18:08:18.272Z,16.07
2019-03-29T18:10:46.732Z,17.07
2019-03-29T18:13:15.492Z,17.55
2019-03-29T18:15:44.123Z,19.40
2019-03-29T18:18:13.207Z,17.92
2019-03-29T18:20:42.082Z,18.17
2019-03-29T18:23:10.559Z,18.23
2019-03-29T18:25:39.024Z,18.70
2019-03-29T18:28:07.509Z,19.57
2019-03-29T18:30:40.828Z,20.62
2019-03-29T18:33:09.447Z,21.82
2019-03-29T18:35:38.079Z,22.52
2019-03-29T18:38:06.563Z,19.12
2019-03-29T18:40:35.024Z,20.40
2019-03-29T18:43:03.563Z,22.15
2019-03-29T18:45:32.023Z,21.68
2019-03-29T18:48:00.501Z,19.95
2019-03-29T18:50:29.245Z,23.90
2019-03-29T18:52:57.789Z,21.85
2019-03-29T18:55:26.254Z,22.32
2019-03-29T18:57:54.728Z,22.45
2019-03-29T19:00:31.937Z,23.75
2019-03-29T19:03:20.104Z,20.80
2019-03-29T19:05:48.564Z,23.83
2019-03-29T19:08:17.384Z,22.98
2019-03-29T19:10:46.171Z,24.12
2019-03-29T19:13:16.403Z,22.13
2019-03-29T19:15:44.867Z,20.37
2019-03-29T19:18:13.351Z,22.45
2019-03-29T19:20:41.810Z,23.75
2019-03-29T19:23:10.351Z,24.12
2019-03-29T19:25:39.142Z,23.40
2019-03-29T19:28:07.679Z,24.23
2019-03-29T19:30:36.134Z,25.75
2019-03-29T19:33:05.101Z,26.68
2019-03-29T19:35:34.002Z,27.80
2019-03-29T19:38:02.476Z,25.00
2019-03-29T19:40:31.012Z,25.30
2019-03-29T19:42:59.763Z,25.45
2019-03-29T19:45:28.215Z,22.45
2019-03-29T19:47:56.688Z,21.82
2019-03-29T19:50:25.141Z,29.80
2019-03-29T19:52:53.705Z,24.50
2019-03-29T19:55:22.499Z,25.88
2019-03-29T19:57:50.994Z,25.88
2019-03-29T20:00:21.319Z,30.95
2019-03-29T20:02:49.842Z,30.25
2019-03-29T20:05:26.434Z,30.52
2019-03-29T20:07:56.091Z,32.40
2019-03-29T20:10:24.755Z,25.50
2019-03-29T20:13:08.309Z,28.75
2019-03-29T20:15:56.108Z,30.12
2019-03-29T20:18:24.587Z,26.00
2019-03-29T20:20:53.046Z,28.38
2019-03-29T20:23:21.591Z,31.85
2019-03-29T20:25:57.856Z,29.95
2019-03-29T20:28:26.339Z,31.70
2019-03-29T20:30:55.057Z,32.78
2019-03-29T20:33:23.603Z,32.08
2019-03-29T20:35:52.061Z,32.28
2019-03-29T20:38:20.897Z,28.50
2019-03-29T20:40:49.351Z,27.20
2019-03-29T20:43:18.176Z,26.45
2019-03-29T20:45:46.968Z,33.85
2019-03-29T20:48:15.440Z,32.35
2019-03-29T20:50:44.356Z,30.57
2019-03-29T20:53:12.897Z,28.80
2019-03-29T20:55:41.444Z,36.08
2019-03-29T20:58:10.319Z,34.63
2019-03-29T21:00:38.800Z,30.25
2019-03-29T21:03:07.257Z,28.92
2019-03-29T21:05:35.731Z,33.00
2019-03-29T21:08:19.450Z,31.37
2019-03-29T21:10:55.462Z,29.42
2019-03-29T21:13:18.387Z,29.87
2019-03-29T21:15:46.863Z,34.33
2019-03-29T21:18:17.468Z,39.65
2019-03-29T21:20:45.523Z,38.23
2019-03-29T21:23:13.979Z,36.13
2019-03-29T21:25:42.804Z,37.67
2019-03-29T21:28:11.263Z,38.75
2019-03-29T21:30:39.748Z,34.48
2019-03-29T21:33:08.563Z,41.10
2019-03-29T21:35:37.035Z,42.43
2019-03-29T21:38:05.502Z,45.85
2019-03-29T21:40:34.043Z,55.15
2019-03-29T21:43:02.591Z,47.80
2019-03-29T21:45:31.067Z,52.33
2019-03-29T21:48:09.977Z,43.38
2019-03-29T21:50:30.093Z,41.30
2019-03-29T21:52:58.911Z,47.85
2019-03-29T21:55:27.387Z,44.08
2019-03-29T21:57:56.287Z,52.33
2019-03-29T22:00:24.766Z,47.53
2019-03-29T22:02:53.672Z,46.45
2019-03-29T22:05:22.210Z,48.70
2019-03-29T22:07:50.952Z,47.80
2019-03-29T22:10:19.852Z,45.75
2019-03-29T22:12:48.739Z,47.83
2019-03-29T22:15:17.288Z,40.70
2019-03-29T22:17:45.742Z,41.45
2019-03-29T22:20:14.203Z,39.13
2019-03-29T22:22:42.688Z,37.05
2019-03-29T22:25:11.587Z,34.58
2019-03-29T22:27:40.484Z,38.17
2019-03-29T22:30:10.499Z,44.90
2019-03-29T22:32:39.283Z,37.10
2019-03-29T22:35:08.294Z,37.85
2019-03-29T22:37:36.908Z,46.37
2019-03-29T22:40:07.980Z,48.13
2019-03-29T22:42:36.817Z,52.20
2019-03-29T22:45:07.798Z,43.68
2019-03-29T22:47:36.659Z,46.13
2019-03-29T22:50:06.782Z,48.50
2019-03-29T22:52:35.322Z,45.52
2019-03-29T22:55:05.818Z,49.00
2019-03-29T22:57:34.357Z,45.50
2019-03-29T23:00:03.843Z,46.25
2019-03-29T23:02:32.680Z,52.17
2019-03-29T23:05:01.216Z,41.08
2019-03-29T23:07:29.763Z,47.30
2019-03-29T23:09:58.225Z,48.80
2019-03-29T23:12:26.709Z,44.73
2019-03-29T23:14:55.244Z,49.27
2019-03-29T23:17:24.011Z,42.93
2019-03-29T23:19:52.803Z,46.98
2019-03-29T23:22:21.279Z,45.20
2019-03-29T23:24:49.739Z,43.05
2019-03-29T23:27:18.211Z,50.00
2019-03-29T23:29:46.676Z,46.13
2019-03-29T23:32:15.156Z,36.83
2019-03-29T23:34:43.697Z,41.42
2019-03-29T23:37:12.248Z,48.65
2019-03-29T23:39:40.708Z,47.80
2019-03-29T23:42:09.479Z,51.50
2019-03-29T23:44:38.273Z,44.55
2019-03-29T23:47:07.059Z,42.85
2019-03-29T23:49:35.539Z,43.95
2019-03-29T23:52:03.991Z,44.50
2019-03-29T23:54:32.466Z,51.50
2019-03-29T23:57:01.216Z,44.45
2019-03-29T23:59:29.999Z,60.67
